Aérodrome :
LOGIN :

S'inscrire | Disclaimer

   EN    FR    IT 

 










Légende :    VFR   VFR Marginal   IFR   IFR Intensif   IFR Très Intensif
Visi : 
Plafond : 
>= 8 km
>= 3000ft
5 à 8 km
1000 à 3000 ft
1500m à 5 km
500 à 1000 ft
800 à 1500m
200 à 500 ft
< 800m
< 200 ft
Symboles :   Orages  Brouillard  Fortes neiges  Fortes précipitations  Vent > 20 kt
SIGMETs :   Divers  Orages  Givrage  Turbulence  Onde Orograph.  Cendres Volcan.






- Altitude de l'aérodrome : 11 ft
- Code IATA : SXL


EISG - Sligo

DERNIER METAR :
  • 031600Z VRB02KT 9999 FEW007 BKN019 OVC031 01/01 Q0985

METARs EXPIRÉS :
  • 031530Z VRB03KT 9999 -RASN FEW009 BKN022 OVC040 01/01 Q0985
  • 031500Z VRB03KT 9999 SCT012 BKN039 01/00 Q0985 RERA
  • 031430Z 06004KT 020V130 9999 FEW008 BKN012 BKN023 02/01 Q0985
  • 031400Z 26007KT 9999 SCT016 SCT023 03/02 Q0985
  • 031330Z 25009KT 8000 FEW030 BKN038 BKN047 04/03 Q0985

TAF TAF EISG
Valide du 03 à 15h jusqu'au 04 à 00h UTC


031400Z 0315/0324 29008KT 9999 FEW015 BKN030
TEMPO 0315/0321 4000 SHRA BKN012 FEW020CB
PROB30
TEMPO 0315/0318 29015G27KT 2500 SHRAGS BKN007 SCT020CB



MET'MAP, la Météo Aéronautique d'un coup d'oeil ! - Copyright ORBIFLY Décembre 2007 - Disclaimer

ORBIFLY MET'MAP TEAM :

Programmation & Développement : Alexandra Zaïnal
Sur une idée originale de : Baudouin d'Aumeries
Assistance à la programmation : Marc-Olivier Méhu
Soutien technique & logistique : Manuel Goepfert

Contact : metmap@orbifly.com




SOURCES & CREDITS :

   NOAA